sensor_id;sensor_type;location;lat;lon;timestamp;P1;durP1;ratioP1;P2;durP2;ratioP2
64684;SDS011;51109;47.414;18.954;2022-08-21T00:00:32;7.88;;;4.88;;
64684;SDS011;51109;47.414;18.954;2022-08-21T00:03:00;5.25;;;4.80;;
64684;SDS011;51109;47.414;18.954;2022-08-21T00:05:30;5.47;;;4.80;;
64684;SDS011;51109;47.414;18.954;2022-08-21T00:07:57;4.80;;;4.40;;
64684;SDS011;51109;47.414;18.954;2022-08-21T00:10:23;6.60;;;5.00;;
64684;SDS011;51109;47.414;18.954;2022-08-21T00:12:50;5.45;;;4.95;;
64684;SDS011;51109;47.414;18.954;2022-08-21T00:15:18;5.40;;;4.90;;
64684;SDS011;51109;47.414;18.954;2022-08-21T00:17:47;6.30;;;4.95;;
64684;SDS011;51109;47.414;18.954;2022-08-21T00:20:14;8.20;;;5.60;;
64684;SDS011;51109;47.414;18.954;2022-08-21T00:22:41;5.18;;;4.68;;
64684;SDS011;51109;47.414;18.954;2022-08-21T00:25:08;5.35;;;4.85;;
64684;SDS011;51109;47.414;18.954;2022-08-21T00:27:34;6.13;;;5.38;;
64684;SDS011;51109;47.414;18.954;2022-08-21T00:30:01;4.93;;;4.50;;
64684;SDS011;51109;47.414;18.954;2022-08-21T00:32:29;5.28;;;4.78;;
64684;SDS011;51109;47.414;18.954;2022-08-21T00:34:55;7.93;;;5.25;;
64684;SDS011;51109;47.414;18.954;2022-08-21T00:37:21;6.03;;;5.43;;
64684;SDS011;51109;47.414;18.954;2022-08-21T00:39:47;6.15;;;5.55;;
64684;SDS011;51109;47.414;18.954;2022-08-21T00:42:14;7.45;;;6.07;;
64684;SDS011;51109;47.414;18.954;2022-08-21T00:44:41;6.22;;;5.60;;
64684;SDS011;51109;47.414;18.954;2022-08-21T00:47:13;6.13;;;5.55;;
64684;SDS011;51109;47.414;18.954;2022-08-21T00:49:39;6.35;;;5.75;;
64684;SDS011;51109;47.414;18.954;2022-08-21T00:52:06;7.32;;;6.63;;
64684;SDS011;51109;47.414;18.954;2022-08-21T00:54:35;7.43;;;6.72;;
64684;SDS011;51109;47.414;18.954;2022-08-21T00:57:07;7.78;;;6.60;;
64684;SDS011;51109;47.414;18.954;2022-08-21T00:59:38;9.63;;;6.63;;
64684;SDS011;51109;47.414;18.954;2022-08-21T01:02:07;7.97;;;7.18;;
64684;SDS011;51109;47.414;18.954;2022-08-21T01:04:34;6.60;;;6.00;;
64684;SDS011;51109;47.414;18.954;2022-08-21T01:07:00;8.70;;;6.72;;
64684;SDS011;51109;47.414;18.954;2022-08-21T01:09:27;8.88;;;6.95;;
64684;SDS011;51109;47.414;18.954;2022-08-21T01:11:53;9.73;;;7.28;;
64684;SDS011;51109;47.414;18.954;2022-08-21T01:14:19;8.90;;;7.97;;
64684;SDS011;51109;47.414;18.954;2022-08-21T01:16:46;10.88;;;8.52;;
64684;SDS011;51109;47.414;18.954;2022-08-21T01:19:15;9.35;;;8.02;;
64684;SDS011;51109;47.414;18.954;2022-08-21T01:21:42;9.00;;;7.75;;
64684;SDS011;51109;47.414;18.954;2022-08-21T01:24:09;9.15;;;7.13;;
64684;SDS011;51109;47.414;18.954;2022-08-21T01:26:35;10.93;;;8.68;;
64684;SDS011;51109;47.414;18.954;2022-08-21T01:31:28;9.85;;;7.68;;
64684;SDS011;51109;47.414;18.954;2022-08-21T01:33:55;13.50;;;8.32;;
64684;SDS011;51109;47.414;18.954;2022-08-21T01:36:22;12.70;;;8.90;;
64684;SDS011;51109;47.414;18.954;2022-08-21T01:38:49;9.00;;;7.88;;
64684;SDS011;51109;47.414;18.954;2022-08-21T01:41:15;10.35;;;7.97;;
64684;SDS011;51109;47.414;18.954;2022-08-21T01:43:41;12.20;;;8.55;;
64684;SDS011;51109;47.414;18.954;2022-08-21T01:46:08;12.23;;;8.65;;
64684;SDS011;51109;47.414;18.954;2022-08-21T01:48:35;13.02;;;9.27;;
64684;SDS011;51109;47.414;18.954;2022-08-21T01:51:01;11.90;;;8.60;;
64684;SDS011;51109;47.414;18.954;2022-08-21T01:53:27;11.73;;;8.82;;
64684;SDS011;51109;47.414;18.954;2022-08-21T01:55:53;13.55;;;8.48;;
64684;SDS011;51109;47.414;18.954;2022-08-21T01:58:19;12.05;;;8.90;;
64684;SDS011;51109;47.414;18.954;2022-08-21T02:00:45;13.95;;;9.32;;
64684;SDS011;51109;47.414;18.954;2022-08-21T02:03:11;14.13;;;8.88;;
64684;SDS011;51109;47.414;18.954;2022-08-21T02:05:37;13.15;;;9.65;;
64684;SDS011;51109;47.414;18.954;2022-08-21T02:08:03;11.82;;;8.23;;
64684;SDS011;51109;47.414;18.954;2022-08-21T02:10:32;15.48;;;10.00;;
64684;SDS011;51109;47.414;18.954;2022-08-21T02:12:58;12.10;;;9.07;;
64684;SDS011;51109;47.414;18.954;2022-08-21T02:15:26;15.13;;;9.55;;
64684;SDS011;51109;47.414;18.954;2022-08-21T02:17:57;12.70;;;9.57;;
64684;SDS011;51109;47.414;18.954;2022-08-21T02:20:25;14.20;;;9.13;;
64684;SDS011;51109;47.414;18.954;2022-08-21T02:22:57;12.30;;;9.68;;
64684;SDS011;51109;47.414;18.954;2022-08-21T02:25:24;10.85;;;8.60;;
64684;SDS011;51109;47.414;18.954;2022-08-21T02:27:52;15.48;;;10.88;;
64684;SDS011;51109;47.414;18.954;2022-08-21T02:30:19;11.85;;;8.60;;
64684;SDS011;51109;47.414;18.954;2022-08-21T02:32:48;12.55;;;9.60;;
64684;SDS011;51109;47.414;18.954;2022-08-21T02:35:13;14.02;;;9.43;;
64684;SDS011;51109;47.414;18.954;2022-08-21T02:37:51;13.25;;;8.70;;
64684;SDS011;51109;47.414;18.954;2022-08-21T02:40:24;14.95;;;9.32;;
64684;SDS011;51109;47.414;18.954;2022-08-21T02:42:53;14.80;;;9.93;;
64684;SDS011;51109;47.414;18.954;2022-08-21T02:45:19;15.05;;;10.73;;
64684;SDS011;51109;47.414;18.954;2022-08-21T02:47:52;14.35;;;9.30;;
64684;SDS011;51109;47.414;18.954;2022-08-21T02:50:23;14.50;;;10.55;;
64684;SDS011;51109;47.414;18.954;2022-08-21T02:52:51;13.98;;;9.98;;
64684;SDS011;51109;47.414;18.954;2022-08-21T02:55:21;15.18;;;10.82;;
64684;SDS011;51109;47.414;18.954;2022-08-21T02:57:48;14.77;;;9.80;;
64684;SDS011;51109;47.414;18.954;2022-08-21T03:00:14;12.98;;;9.15;;
64684;SDS011;51109;47.414;18.954;2022-08-21T03:02:41;14.43;;;9.70;;
64684;SDS011;51109;47.414;18.954;2022-08-21T03:05:08;14.30;;;9.25;;
64684;SDS011;51109;47.414;18.954;2022-08-21T03:07:36;13.82;;;10.00;;
64684;SDS011;51109;47.414;18.954;2022-08-21T03:10:03;15.57;;;9.77;;
64684;SDS011;51109;47.414;18.954;2022-08-21T03:12:30;14.68;;;10.40;;
64684;SDS011;51109;47.414;18.954;2022-08-21T03:14:56;15.07;;;10.00;;
64684;SDS011;51109;47.414;18.954;2022-08-21T03:17:23;12.82;;;9.57;;
64684;SDS011;51109;47.414;18.954;2022-08-21T03:19:49;16.45;;;10.85;;
64684;SDS011;51109;47.414;18.954;2022-08-21T03:22:15;12.00;;;9.38;;
64684;SDS011;51109;47.414;18.954;2022-08-21T03:24:42;14.13;;;9.05;;
64684;SDS011;51109;47.414;18.954;2022-08-21T03:27:08;14.93;;;10.52;;
64684;SDS011;51109;47.414;18.954;2022-08-21T03:29:34;15.43;;;10.52;;
64684;SDS011;51109;47.414;18.954;2022-08-21T03:32:00;13.18;;;9.65;;
64684;SDS011;51109;47.414;18.954;2022-08-21T03:34:25;18.70;;;11.70;;
64684;SDS011;51109;47.414;18.954;2022-08-21T03:36:51;15.75;;;10.95;;
64684;SDS011;51109;47.414;18.954;2022-08-21T03:39:17;18.80;;;10.65;;
64684;SDS011;51109;47.414;18.954;2022-08-21T03:41:43;20.23;;;10.88;;
64684;SDS011;51109;47.414;18.954;2022-08-21T03:44:10;16.67;;;11.15;;
64684;SDS011;51109;47.414;18.954;2022-08-21T03:46:36;18.70;;;11.57;;
64684;SDS011;51109;47.414;18.954;2022-08-21T03:49:03;18.55;;;10.57;;
64684;SDS011;51109;47.414;18.954;2022-08-21T03:51:28;16.50;;;10.88;;
64684;SDS011;51109;47.414;18.954;2022-08-21T03:53:57;18.40;;;11.82;;
64684;SDS011;51109;47.414;18.954;2022-08-21T03:56:23;15.50;;;10.93;;
64684;SDS011;51109;47.414;18.954;2022-08-21T03:58:49;15.68;;;10.57;;
64684;SDS011;51109;47.414;18.954;2022-08-21T04:01:15;18.25;;;11.90;;
64684;SDS011;51109;47.414;18.954;2022-08-21T04:03:41;16.38;;;11.43;;
64684;SDS011;51109;47.414;18.954;2022-08-21T04:06:07;18.38;;;11.73;;
64684;SDS011;51109;47.414;18.954;2022-08-21T04:08:34;19.38;;;12.07;;
64684;SDS011;51109;47.414;18.954;2022-08-21T04:11:00;16.85;;;11.57;;
64684;SDS011;51109;47.414;18.954;2022-08-21T04:13:26;18.85;;;12.50;;
64684;SDS011;51109;47.414;18.954;2022-08-21T04:15:53;18.27;;;11.43;;
64684;SDS011;51109;47.414;18.954;2022-08-21T04:18:20;15.48;;;11.88;;
64684;SDS011;51109;47.414;18.954;2022-08-21T04:20:47;18.65;;;12.13;;
64684;SDS011;51109;47.414;18.954;2022-08-21T04:23:17;20.23;;;13.13;;
64684;SDS011;51109;47.414;18.954;2022-08-21T04:25:43;18.60;;;12.30;;
64684;SDS011;51109;47.414;18.954;2022-08-21T04:28:09;20.60;;;12.65;;
64684;SDS011;51109;47.414;18.954;2022-08-21T04:30:36;18.70;;;12.55;;
64684;SDS011;51109;47.414;18.954;2022-08-21T04:33:02;20.67;;;12.45;;
64684;SDS011;51109;47.414;18.954;2022-08-21T04:35:29;19.00;;;13.10;;
64684;SDS011;51109;47.414;18.954;2022-08-21T04:37:55;18.33;;;12.25;;
64684;SDS011;51109;47.414;18.954;2022-08-21T04:40:23;17.98;;;12.60;;
64684;SDS011;51109;47.414;18.954;2022-08-21T04:42:51;15.65;;;12.30;;
64684;SDS011;51109;47.414;18.954;2022-08-21T04:45:29;16.42;;;12.30;;
64684;SDS011;51109;47.414;18.954;2022-08-21T04:48:00;14.65;;;10.98;;
64684;SDS011;51109;47.414;18.954;2022-08-21T04:50:34;15.00;;;11.43;;
64684;SDS011;51109;47.414;18.954;2022-08-21T04:53:08;15.68;;;10.50;;
64684;SDS011;51109;47.414;18.954;2022-08-21T04:55:39;13.60;;;10.13;;
64684;SDS011;51109;47.414;18.954;2022-08-21T04:58:08;12.52;;;9.05;;
64684;SDS011;51109;47.414;18.954;2022-08-21T05:00:36;11.25;;;8.70;;
64684;SDS011;51109;47.414;18.954;2022-08-21T05:03:02;9.73;;;8.25;;
64684;SDS011;51109;47.414;18.954;2022-08-21T05:05:30;13.02;;;8.90;;
64684;SDS011;51109;47.414;18.954;2022-08-21T05:07:57;11.18;;;8.77;;
64684;SDS011;51109;47.414;18.954;2022-08-21T05:10:26;9.50;;;7.72;;
64684;SDS011;51109;47.414;18.954;2022-08-21T05:12:52;13.18;;;7.55;;
64684;SDS011;51109;47.414;18.954;2022-08-21T05:15:19;9.52;;;7.53;;
64684;SDS011;51109;47.414;18.954;2022-08-21T05:17:45;8.05;;;6.88;;
64684;SDS011;51109;47.414;18.954;2022-08-21T05:20:11;13.43;;;8.05;;
64684;SDS011;51109;47.414;18.954;2022-08-21T05:22:39;9.40;;;7.75;;
64684;SDS011;51109;47.414;18.954;2022-08-21T05:25:05;10.32;;;7.15;;
64684;SDS011;51109;47.414;18.954;2022-08-21T05:27:33;11.05;;;7.35;;
64684;SDS011;51109;47.414;18.954;2022-08-21T05:29:59;10.65;;;7.20;;
64684;SDS011;51109;47.414;18.954;2022-08-21T05:32:25;7.53;;;6.47;;
64684;SDS011;51109;47.414;18.954;2022-08-21T05:34:52;7.38;;;6.35;;
64684;SDS011;51109;47.414;18.954;2022-08-21T05:37:18;7.32;;;5.95;;
64684;SDS011;51109;47.414;18.954;2022-08-21T05:39:44;7.93;;;6.35;;
64684;SDS011;51109;47.414;18.954;2022-08-21T05:42:10;10.25;;;6.88;;
64684;SDS011;51109;47.414;18.954;2022-08-21T05:44:36;7.57;;;6.72;;
64684;SDS011;51109;47.414;18.954;2022-08-21T05:47:05;7.15;;;6.45;;
64684;SDS011;51109;47.414;18.954;2022-08-21T05:49:33;6.97;;;6.30;;
64684;SDS011;51109;47.414;18.954;2022-08-21T05:52:00;6.47;;;5.70;;
64684;SDS011;51109;47.414;18.954;2022-08-21T05:54:27;6.97;;;5.93;;
64684;SDS011;51109;47.414;18.954;2022-08-21T05:56:53;7.68;;;6.13;;
64684;SDS011;51109;47.414;18.954;2022-08-21T05:59:19;6.05;;;5.00;;
64684;SDS011;51109;47.414;18.954;2022-08-21T06:01:45;6.25;;;5.25;;
64684;SDS011;51109;47.414;18.954;2022-08-21T06:04:11;9.93;;;6.10;;
64684;SDS011;51109;47.414;18.954;2022-08-21T06:06:37;9.18;;;6.38;;
64684;SDS011;51109;47.414;18.954;2022-08-21T06:09:03;6.25;;;5.65;;
64684;SDS011;51109;47.414;18.954;2022-08-21T06:11:31;6.63;;;5.90;;
64684;SDS011;51109;47.414;18.954;2022-08-21T06:13:58;6.25;;;5.38;;
64684;SDS011;51109;47.414;18.954;2022-08-21T06:16:24;7.82;;;5.47;;
64684;SDS011;51109;47.414;18.954;2022-08-21T06:18:53;8.10;;;5.63;;
64684;SDS011;51109;47.414;18.954;2022-08-21T06:21:19;6.38;;;5.05;;
64684;SDS011;51109;47.414;18.954;2022-08-21T06:23:45;6.50;;;5.80;;
64684;SDS011;51109;47.414;18.954;2022-08-21T06:26:11;6.15;;;5.30;;
64684;SDS011;51109;47.414;18.954;2022-08-21T06:28:39;8.10;;;5.10;;
64684;SDS011;51109;47.414;18.954;2022-08-21T06:31:16;7.05;;;5.78;;
64684;SDS011;51109;47.414;18.954;2022-08-21T06:33:43;6.50;;;5.72;;
64684;SDS011;51109;47.414;18.954;2022-08-21T06:36:10;6.30;;;5.70;;
64684;SDS011;51109;47.414;18.954;2022-08-21T06:38:36;6.43;;;5.45;;
64684;SDS011;51109;47.414;18.954;2022-08-21T06:41:02;6.20;;;5.60;;
64684;SDS011;51109;47.414;18.954;2022-08-21T06:43:28;7.35;;;5.43;;
64684;SDS011;51109;47.414;18.954;2022-08-21T06:45:55;6.90;;;5.47;;
64684;SDS011;51109;47.414;18.954;2022-08-21T06:48:21;6.43;;;5.13;;
64684;SDS011;51109;47.414;18.954;2022-08-21T06:50:47;7.47;;;5.43;;
64684;SDS011;51109;47.414;18.954;2022-08-21T06:53:14;5.82;;;5.28;;
64684;SDS011;51109;47.414;18.954;2022-08-21T06:55:42;5.47;;;4.97;;
64684;SDS011;51109;47.414;18.954;2022-08-21T06:58:09;5.22;;;4.68;;
64684;SDS011;51109;47.414;18.954;2022-08-21T07:00:36;6.68;;;5.38;;
64684;SDS011;51109;47.414;18.954;2022-08-21T07:03:05;6.50;;;5.53;;
64684;SDS011;51109;47.414;18.954;2022-08-21T07:05:31;6.68;;;5.20;;
64684;SDS011;51109;47.414;18.954;2022-08-21T07:07:57;6.18;;;5.47;;
64684;SDS011;51109;47.414;18.954;2022-08-21T07:10:25;6.80;;;6.10;;
64684;SDS011;51109;47.414;18.954;2022-08-21T07:12:52;10.38;;;5.30;;
64684;SDS011;51109;47.414;18.954;2022-08-21T07:15:19;7.50;;;5.45;;
64684;SDS011;51109;47.414;18.954;2022-08-21T07:17:45;5.75;;;5.18;;
64684;SDS011;51109;47.414;18.954;2022-08-21T07:20:11;5.97;;;5.40;;
64684;SDS011;51109;47.414;18.954;2022-08-21T07:22:38;5.85;;;5.25;;
64684;SDS011;51109;47.414;18.954;2022-08-21T07:25:05;5.70;;;5.05;;
64684;SDS011;51109;47.414;18.954;2022-08-21T07:27:31;5.78;;;5.20;;
64684;SDS011;51109;47.414;18.954;2022-08-21T07:29:57;6.60;;;4.88;;
64684;SDS011;51109;47.414;18.954;2022-08-21T07:32:23;7.93;;;5.55;;
64684;SDS011;51109;47.414;18.954;2022-08-21T07:34:49;9.25;;;5.15;;
64684;SDS011;51109;47.414;18.954;2022-08-21T07:37:15;7.68;;;5.40;;
64684;SDS011;51109;47.414;18.954;2022-08-21T07:39:41;5.82;;;4.53;;
64684;SDS011;51109;47.414;18.954;2022-08-21T07:42:07;5.40;;;4.90;;
64684;SDS011;51109;47.414;18.954;2022-08-21T07:44:35;5.82;;;4.97;;
64684;SDS011;51109;47.414;18.954;2022-08-21T07:47:01;6.72;;;5.47;;
64684;SDS011;51109;47.414;18.954;2022-08-21T07:49:27;6.03;;;5.40;;
64684;SDS011;51109;47.414;18.954;2022-08-21T07:51:53;5.80;;;5.10;;
64684;SDS011;51109;47.414;18.954;2022-08-21T07:54:20;6.13;;;5.53;;
64684;SDS011;51109;47.414;18.954;2022-08-21T07:56:46;11.70;;;5.40;;
64684;SDS011;51109;47.414;18.954;2022-08-21T07:59:12;6.60;;;4.93;;
64684;SDS011;51109;47.414;18.954;2022-08-21T08:01:38;5.15;;;4.57;;
64684;SDS011;51109;47.414;18.954;2022-08-21T08:04:03;6.10;;;5.32;;
64684;SDS011;51109;47.414;18.954;2022-08-21T08:06:29;5.70;;;5.10;;
64684;SDS011;51109;47.414;18.954;2022-08-21T08:08:55;6.80;;;5.47;;
64684;SDS011;51109;47.414;18.954;2022-08-21T08:11:21;7.60;;;5.60;;
64684;SDS011;51109;47.414;18.954;2022-08-21T08:13:48;6.10;;;5.45;;
64684;SDS011;51109;47.414;18.954;2022-08-21T08:16:16;5.82;;;5.15;;
64684;SDS011;51109;47.414;18.954;2022-08-21T08:18:43;7.47;;;5.10;;
64684;SDS011;51109;47.414;18.954;2022-08-21T08:21:10;7.22;;;5.80;;
64684;SDS011;51109;47.414;18.954;2022-08-21T08:23:37;6.30;;;5.57;;
64684;SDS011;51109;47.414;18.954;2022-08-21T08:26:04;6.65;;;5.60;;
64684;SDS011;51109;47.414;18.954;2022-08-21T08:28:31;6.20;;;5.60;;
64684;SDS011;51109;47.414;18.954;2022-08-21T08:30:58;5.72;;;5.22;;
64684;SDS011;51109;47.414;18.954;2022-08-21T08:33:28;5.72;;;5.20;;
64684;SDS011;51109;47.414;18.954;2022-08-21T08:35:54;6.70;;;5.78;;
64684;SDS011;51109;47.414;18.954;2022-08-21T08:38:21;6.13;;;5.53;;
64684;SDS011;51109;47.414;18.954;2022-08-21T08:41:00;5.85;;;5.32;;
64684;SDS011;51109;47.414;18.954;2022-08-21T08:43:33;6.47;;;5.65;;
64684;SDS011;51109;47.414;18.954;2022-08-21T08:46:01;5.78;;;5.28;;
64684;SDS011;51109;47.414;18.954;2022-08-21T08:48:47;6.47;;;5.88;;
64684;SDS011;51109;47.414;18.954;2022-08-21T08:51:38;6.50;;;5.35;;
64684;SDS011;51109;47.414;18.954;2022-08-21T08:54:20;9.32;;;6.03;;
64684;SDS011;51109;47.414;18.954;2022-08-21T08:56:50;7.87;;;5.90;;
64684;SDS011;51109;47.414;18.954;2022-08-21T08:59:22;6.85;;;6.18;;
64684;SDS011;51109;47.414;18.954;2022-08-21T09:01:52;8.18;;;5.75;;
64684;SDS011;51109;47.414;18.954;2022-08-21T09:04:23;7.35;;;5.43;;
64684;SDS011;51109;47.414;18.954;2022-08-21T09:19:22;7.68;;;6.35;;
64684;SDS011;51109;47.414;18.954;2022-08-21T09:22:36;6.75;;;5.93;;
64684;SDS011;51109;47.414;18.954;2022-08-21T09:25:13;11.02;;;5.68;;
64684;SDS011;51109;47.414;18.954;2022-08-21T09:27:47;7.00;;;5.13;;
64684;SDS011;51109;47.414;18.954;2022-08-21T09:30:13;8.60;;;6.13;;
64684;SDS011;51109;47.414;18.954;2022-08-21T09:32:40;8.05;;;6.40;;
64684;SDS011;51109;47.414;18.954;2022-08-21T09:40:54;6.47;;;5.82;;
64684;SDS011;51109;47.414;18.954;2022-08-21T09:43:25;6.38;;;5.78;;
64684;SDS011;51109;47.414;18.954;2022-08-21T09:46:05;6.88;;;6.18;;
64684;SDS011;51109;47.414;18.954;2022-08-21T09:48:46;10.43;;;6.53;;
64684;SDS011;51109;47.414;18.954;2022-08-21T09:51:18;7.07;;;6.38;;
64684;SDS011;51109;47.414;18.954;2022-08-21T09:53:48;6.73;;;6.13;;
64684;SDS011;51109;47.414;18.954;2022-08-21T09:56:31;6.07;;;5.47;;
64684;SDS011;51109;47.414;18.954;2022-08-21T09:59:20;9.23;;;6.80;;
64684;SDS011;51109;47.414;18.954;2022-08-21T10:01:56;7.55;;;6.18;;
64684;SDS011;51109;47.414;18.954;2022-08-21T10:04:28;6.25;;;5.65;;
64684;SDS011;51109;47.414;18.954;2022-08-21T10:07:09;7.03;;;5.78;;
64684;SDS011;51109;47.414;18.954;2022-08-21T10:09:37;6.97;;;6.28;;
64684;SDS011;51109;47.414;18.954;2022-08-21T10:12:10;8.15;;;6.30;;
64684;SDS011;51109;47.414;18.954;2022-08-21T10:18:01;7.43;;;5.70;;
64684;SDS011;51109;47.414;18.954;2022-08-21T10:20:52;6.45;;;5.75;;
64684;SDS011;51109;47.414;18.954;2022-08-21T10:23:34;5.43;;;4.93;;
64684;SDS011;51109;47.414;18.954;2022-08-21T10:32:17;7.90;;;6.78;;
64684;SDS011;51109;47.414;18.954;2022-08-21T10:37:46;9.13;;;6.82;;
64684;SDS011;51109;47.414;18.954;2022-08-21T10:40:37;7.40;;;5.90;;
64684;SDS011;51109;47.414;18.954;2022-08-21T10:46:19;8.18;;;6.65;;
64684;SDS011;51109;47.414;18.954;2022-08-21T10:49:17;8.60;;;6.57;;
64684;SDS011;51109;47.414;18.954;2022-08-21T10:52:22;8.18;;;6.65;;
64684;SDS011;51109;47.414;18.954;2022-08-21T11:00:17;7.78;;;6.18;;
64684;SDS011;51109;47.414;18.954;2022-08-21T11:08:15;9.10;;;6.03;;
64684;SDS011;51109;47.414;18.954;2022-08-21T11:10:59;8.48;;;5.45;;
64684;SDS011;51109;47.414;18.954;2022-08-21T11:13:35;5.65;;;5.15;;
64684;SDS011;51109;47.414;18.954;2022-08-21T11:16:11;6.47;;;5.75;;
64684;SDS011;51109;47.414;18.954;2022-08-21T11:19:04;6.90;;;5.05;;
64684;SDS011;51109;47.414;18.954;2022-08-21T11:21:43;6.53;;;5.50;;
64684;SDS011;51109;47.414;18.954;2022-08-21T11:24:32;8.38;;;5.93;;
64684;SDS011;51109;47.414;18.954;2022-08-21T11:27:24;7.07;;;5.82;;
64684;SDS011;51109;47.414;18.954;2022-08-21T11:29:57;8.52;;;6.25;;
64684;SDS011;51109;47.414;18.954;2022-08-21T11:38:19;6.05;;;5.45;;
64684;SDS011;51109;47.414;18.954;2022-08-21T11:41:03;6.50;;;5.43;;
64684;SDS011;51109;47.414;18.954;2022-08-21T11:46:49;8.85;;;5.45;;
64684;SDS011;51109;47.414;18.954;2022-08-21T11:52:04;6.70;;;5.60;;
64684;SDS011;51109;47.414;18.954;2022-08-21T11:54:37;6.53;;;5.93;;
64684;SDS011;51109;47.414;18.954;2022-08-21T11:57:23;7.75;;;5.75;;
64684;SDS011;51109;47.414;18.954;2022-08-21T12:00:05;8.13;;;6.13;;
64684;SDS011;51109;47.414;18.954;2022-08-21T12:02:38;19.30;;;8.25;;
64684;SDS011;51109;47.414;18.954;2022-08-21T12:07:47;17.70;;;10.43;;
64684;SDS011;51109;47.414;18.954;2022-08-21T12:10:14;18.98;;;9.77;;
64684;SDS011;51109;47.414;18.954;2022-08-21T12:15:24;13.80;;;9.43;;
64684;SDS011;51109;47.414;18.954;2022-08-21T12:18:01;17.33;;;9.65;;
64684;SDS011;51109;47.414;18.954;2022-08-21T12:25:43;15.77;;;10.48;;
64684;SDS011;51109;47.414;18.954;2022-08-21T12:28:14;13.63;;;9.68;;
64684;SDS011;51109;47.414;18.954;2022-08-21T12:30:47;11.20;;;9.23;;
64684;SDS011;51109;47.414;18.954;2022-08-21T12:35:49;14.65;;;10.52;;
64684;SDS011;51109;47.414;18.954;2022-08-21T12:38:19;11.30;;;9.35;;
64684;SDS011;51109;47.414;18.954;2022-08-21T12:40:56;14.82;;;9.48;;
64684;SDS011;51109;47.414;18.954;2022-08-21T12:43:38;12.20;;;8.82;;
64684;SDS011;51109;47.414;18.954;2022-08-21T12:46:13;10.57;;;8.23;;
64684;SDS011;51109;47.414;18.954;2022-08-21T12:48:49;11.10;;;8.80;;
64684;SDS011;51109;47.414;18.954;2022-08-21T12:51:23;11.90;;;8.73;;
64684;SDS011;51109;47.414;18.954;2022-08-21T12:53:53;10.00;;;7.97;;
64684;SDS011;51109;47.414;18.954;2022-08-21T12:56:26;9.73;;;8.20;;
64684;SDS011;51109;47.414;18.954;2022-08-21T12:58:55;10.50;;;8.18;;
64684;SDS011;51109;47.414;18.954;2022-08-21T13:01:28;9.77;;;7.82;;
64684;SDS011;51109;47.414;18.954;2022-08-21T13:04:01;7.25;;;6.45;;
64684;SDS011;51109;47.414;18.954;2022-08-21T13:06:31;7.50;;;6.32;;
64684;SDS011;51109;47.414;18.954;2022-08-21T13:09:06;9.40;;;7.90;;
64684;SDS011;51109;47.414;18.954;2022-08-21T13:11:39;9.13;;;6.85;;
64684;SDS011;51109;47.414;18.954;2022-08-21T13:14:13;8.52;;;6.80;;
64684;SDS011;51109;47.414;18.954;2022-08-21T13:16:46;7.60;;;6.90;;
64684;SDS011;51109;47.414;18.954;2022-08-21T13:19:16;7.13;;;6.43;;
64684;SDS011;51109;47.414;18.954;2022-08-21T13:21:44;6.03;;;5.53;;
64684;SDS011;51109;47.414;18.954;2022-08-21T13:24:15;5.20;;;4.70;;
64684;SDS011;51109;47.414;18.954;2022-08-21T13:26:43;6.05;;;4.45;;
64684;SDS011;51109;47.414;18.954;2022-08-21T13:29:10;6.05;;;3.90;;
64684;SDS011;51109;47.414;18.954;2022-08-21T13:31:38;4.93;;;3.92;;
64684;SDS011;51109;47.414;18.954;2022-08-21T13:34:08;3.53;;;3.22;;
64684;SDS011;51109;47.414;18.954;2022-08-21T13:36:36;4.45;;;3.85;;
64684;SDS011;51109;47.414;18.954;2022-08-21T13:39:09;4.32;;;3.92;;
64684;SDS011;51109;47.414;18.954;2022-08-21T13:41:39;4.07;;;3.78;;
64684;SDS011;51109;47.414;18.954;2022-08-21T13:46:39;5.15;;;3.97;;
64684;SDS011;51109;47.414;18.954;2022-08-21T13:49:06;4.47;;;3.78;;
64684;SDS011;51109;47.414;18.954;2022-08-21T13:51:35;6.85;;;4.13;;
64684;SDS011;51109;47.414;18.954;2022-08-21T13:54:01;4.45;;;4.15;;
64684;SDS011;51109;47.414;18.954;2022-08-21T13:56:45;4.55;;;4.15;;
64684;SDS011;51109;47.414;18.954;2022-08-21T13:59:12;4.38;;;4.03;;
64684;SDS011;51109;47.414;18.954;2022-08-21T14:04:56;5.32;;;4.05;;
64684;SDS011;51109;47.414;18.954;2022-08-21T14:07:25;4.32;;;3.92;;
64684;SDS011;51109;47.414;18.954;2022-08-21T14:10:00;4.30;;;3.90;;
64684;SDS011;51109;47.414;18.954;2022-08-21T14:15:16;5.00;;;3.83;;
64684;SDS011;51109;47.414;18.954;2022-08-21T14:17:47;4.15;;;3.72;;
64684;SDS011;51109;47.414;18.954;2022-08-21T14:20:30;4.55;;;3.70;;
64684;SDS011;51109;47.414;18.954;2022-08-21T14:22:58;3.83;;;3.42;;
64684;SDS011;51109;47.414;18.954;2022-08-21T14:27:54;4.72;;;4.32;;
64684;SDS011;51109;47.414;18.954;2022-08-21T14:30:44;5.00;;;4.15;;
64684;SDS011;51109;47.414;18.954;2022-08-21T14:33:12;5.25;;;4.30;;
64684;SDS011;51109;47.414;18.954;2022-08-21T14:35:45;6.82;;;4.55;;
64684;SDS011;51109;47.414;18.954;2022-08-21T14:38:15;5.28;;;3.97;;
64684;SDS011;51109;47.414;18.954;2022-08-21T14:40:43;4.28;;;3.88;;
64684;SDS011;51109;47.414;18.954;2022-08-21T14:43:12;5.03;;;4.20;;
64684;SDS011;51109;47.414;18.954;2022-08-21T14:45:38;5.00;;;3.88;;
64684;SDS011;51109;47.414;18.954;2022-08-21T14:48:05;4.63;;;3.53;;
64684;SDS011;51109;47.414;18.954;2022-08-21T14:50:32;4.90;;;3.60;;
64684;SDS011;51109;47.414;18.954;2022-08-21T14:52:58;8.02;;;3.72;;
64684;SDS011;51109;47.414;18.954;2022-08-21T14:55:24;4.70;;;3.47;;
64684;SDS011;51109;47.414;18.954;2022-08-21T14:57:51;4.55;;;3.90;;
64684;SDS011;51109;47.414;18.954;2022-08-21T15:00:20;5.13;;;4.10;;
64684;SDS011;51109;47.414;18.954;2022-08-21T15:02:48;3.78;;;3.35;;
64684;SDS011;51109;47.414;18.954;2022-08-21T15:05:14;3.95;;;3.53;;
64684;SDS011;51109;47.414;18.954;2022-08-21T15:07:41;3.55;;;3.25;;
64684;SDS011;51109;47.414;18.954;2022-08-21T15:10:07;4.00;;;3.65;;
64684;SDS011;51109;47.414;18.954;2022-08-21T15:12:33;4.25;;;3.45;;
64684;SDS011;51109;47.414;18.954;2022-08-21T15:15:00;3.80;;;3.50;;
64684;SDS011;51109;47.414;18.954;2022-08-21T15:17:26;3.88;;;3.35;;
64684;SDS011;51109;47.414;18.954;2022-08-21T15:19:52;3.50;;;2.80;;
64684;SDS011;51109;47.414;18.954;2022-08-21T15:22:18;4.50;;;3.10;;
64684;SDS011;51109;47.414;18.954;2022-08-21T15:24:43;7.32;;;3.40;;
64684;SDS011;51109;47.414;18.954;2022-08-21T15:27:09;3.67;;;3.30;;
64684;SDS011;51109;47.414;18.954;2022-08-21T15:29:37;4.45;;;3.33;;
64684;SDS011;51109;47.414;18.954;2022-08-21T15:32:24;4.65;;;3.35;;
64684;SDS011;51109;47.414;18.954;2022-08-21T15:34:51;3.88;;;2.85;;
64684;SDS011;51109;47.414;18.954;2022-08-21T15:37:18;4.22;;;3.58;;
64684;SDS011;51109;47.414;18.954;2022-08-21T15:39:44;5.25;;;3.03;;
64684;SDS011;51109;47.414;18.954;2022-08-21T15:42:10;7.82;;;2.97;;
64684;SDS011;51109;47.414;18.954;2022-08-21T15:44:38;5.50;;;3.30;;
64684;SDS011;51109;47.414;18.954;2022-08-21T15:47:05;5.35;;;3.28;;
64684;SDS011;51109;47.414;18.954;2022-08-21T15:49:37;5.90;;;3.22;;
64684;SDS011;51109;47.414;18.954;2022-08-21T15:52:03;5.30;;;3.67;;
64684;SDS011;51109;47.414;18.954;2022-08-21T15:54:29;3.85;;;3.47;;
64684;SDS011;51109;47.414;18.954;2022-08-21T15:56:55;3.95;;;3.63;;
64684;SDS011;51109;47.414;18.954;2022-08-21T15:59:21;6.45;;;3.67;;
64684;SDS011;51109;47.414;18.954;2022-08-21T16:01:50;4.90;;;4.20;;
64684;SDS011;51109;47.414;18.954;2022-08-21T16:04:24;5.47;;;3.75;;